Time;durP1;ratioP1;P1;durP2;ratioP2;P2;SDS_P1;SDS_P2;PMS_P1;PMS_P2;Temp;Humidity;BMP_temperature;BMP_pressure;BME280_temperature;BME280_humidity;BME280_pressure;Samples;Min_cycle;Max_cycle;Signal;HPM_P1;HPM_P2
2023/04/25 00:01:21;;;;;;;10.90;2.97;;;15.20;76.00;;;;;;4175275;28;20052;-63
2023/04/25 00:04:02;;;;;;;18.40;3.33;;;15.20;76.10;;;;;;4175567;28;20052;-63
2023/04/25 00:06:44;;;;;;;15.40;3.10;;;15.20;76.40;;;;;;4174363;28;20060;-63
2023/04/25 00:09:25;;;;;;;15.73;3.47;;;15.20;76.70;;;;;;4179098;28;20134;-63
2023/04/25 00:12:07;;;;;;;12.65;3.70;;;15.20;76.20;;;;;;4191866;28;20052;-63
2023/04/25 00:14:49;;;;;;;16.33;3.17;;;15.20;75.30;;;;;;4192260;28;20489;-63
2023/04/25 00:17:31;;;;;;;14.45;4.15;;;15.20;75.90;;;;;;4191906;28;20052;-63
2023/04/25 00:20:12;;;;;;;15.38;4.05;;;15.20;76.90;;;;;;4193812;28;20046;-63
2023/04/25 00:22:55;;;;;;;10.93;3.15;;;15.20;77.40;;;;;;4191972;28;20062;-62
2023/04/25 00:25:36;;;;;;;15.23;3.20;;;15.20;78.10;;;;;;4193547;28;20048;-63
2023/04/25 00:28:17;;;;;;;18.23;3.83;;;15.20;78.00;;;;;;4194632;28;20063;-62
2023/04/25 00:30:58;;;;;;;16.63;3.72;;;15.10;77.70;;;;;;4194966;28;20386;-62
2023/04/25 00:33:38;;;;;;;15.43;3.55;;;15.20;77.90;;;;;;4194685;28;20047;-63
2023/04/25 00:36:19;;;;;;;11.93;3.50;;;15.10;77.50;;;;;;4177598;28;20048;-63
2023/04/25 00:39:02;;;;;;;14.85;2.42;;;15.10;77.80;;;;;;4176988;28;20093;-62
2023/04/25 00:41:44;;;;;;;11.77;3.45;;;15.10;78.50;;;;;;4181003;28;20384;-62
2023/04/25 00:44:26;;;;;;;15.45;2.72;;;15.10;78.60;;;;;;4177934;28;20075;-63
2023/04/25 00:47:08;;;;;;;13.18;2.97;;;15.10;79.10;;;;;;4193726;28;20059;-63
2023/04/25 00:49:48;;;;;;;;;;;15.10;78.60;;;;;;4195184;28;20051;-62
2023/04/25 00:52:29;;;;;;;7.97;2.40;;;15.10;78.50;;;;;;4179892;28;20009;-62
2023/04/25 00:55:13;;;;;;;6.20;2.40;;;15.10;78.70;;;;;;4178018;28;20545;-63
2023/04/25 00:57:54;;;;;;;13.38;3.03;;;15.10;77.20;;;;;;4176585;28;20298;-63
2023/04/25 01:00:34;;;;;;;9.80;2.42;;;15.10;77.50;;;;;;4185529;28;20580;-63
2023/04/25 01:03:17;;;;;;;7.35;2.10;;;15.10;77.30;;;;;;4194381;28;20483;-63
2023/04/25 01:05:58;;;;;;;8.90;2.20;;;15.00;76.60;;;;;;4193739;28;20125;-62
2023/04/25 01:08:40;;;;;;;8.63;2.10;;;15.00;76.20;;;;;;4191494;28;20129;-62
2023/04/25 01:11:22;;;;;;;9.27;2.30;;;15.00;75.70;;;;;;4192984;28;20051;-63
2023/04/25 01:14:03;;;;;;;8.13;2.33;;;15.00;75.10;;;;;;4194250;28;20178;-62
2023/04/25 01:16:44;;;;;;;11.43;3.00;;;15.00;75.30;;;;;;4194359;28;20059;-63
2023/04/25 01:19:25;;;;;;;7.07;2.05;;;15.00;75.60;;;;;;4183137;28;20044;-63
2023/04/25 01:22:10;;;;;;;7.70;2.40;;;15.00;75.50;;;;;;4176145;28;20060;-63
2023/04/25 01:24:50;;;;;;;9.18;2.83;;;15.00;75.90;;;;;;4189285;28;20063;-63
2023/04/25 01:27:32;;;;;;;9.18;2.53;;;15.00;76.00;;;;;;4192755;28;20102;-63
2023/04/25 01:30:14;;;;;;;11.07;2.97;;;15.00;75.90;;;;;;4192916;28;20055;-63
2023/04/25 01:32:56;;;;;;;9.07;2.90;;;15.00;76.30;;;;;;4173601;28;20060;-63
2023/04/25 01:35:37;;;;;;;7.38;2.38;;;15.00;76.60;;;;;;4185309;28;20175;-63
2023/04/25 01:38:20;;;;;;;11.70;2.33;;;15.00;76.00;;;;;;4191672;28;20182;-63
2023/04/25 01:41:01;;;;;;;17.05;2.90;;;14.90;75.60;;;;;;4192458;28;20052;-64
2023/04/25 01:43:41;;;;;;;7.93;2.20;;;14.90;76.00;;;;;;4177497;28;20056;-64
2023/04/25 01:46:23;;;;;;;11.70;3.25;;;14.90;76.20;;;;;;4192748;28;20056;-64
2023/04/25 01:49:04;;;;;;;15.35;3.50;;;14.90;76.20;;;;;;4187252;28;20499;-63
2023/04/25 01:51:46;;;;;;;10.32;2.80;;;14.90;75.90;;;;;;4175954;28;20052;-63
2023/04/25 01:54:28;;;;;;;13.68;2.60;;;14.90;76.10;;;;;;4182953;28;20051;-63
2023/04/25 01:57:09;;;;;;;13.52;3.25;;;14.90;75.90;;;;;;4192190;28;20454;-63
2023/04/25 01:59:52;;;;;;;12.30;2.88;;;14.90;76.10;;;;;;4175507;28;20558;-63
2023/04/25 02:02:53;;;;;;;10.93;2.33;;;14.90;76.00;;;;;;4176379;28;20056;-62
2023/04/25 02:05:41;;;;;;;12.88;2.63;;;14.90;76.30;;;;;;4176388;28;20471;-63
2023/04/25 02:08:25;;;;;;;12.88;2.70;;;14.90;76.70;;;;;;4178233;28;20059;-62
2023/04/25 02:11:09;;;;;;;11.38;2.58;;;14.90;76.50;;;;;;4192424;28;20051;-63
2023/04/25 02:13:56;;;;;;;13.75;3.00;;;14.90;76.40;;;;;;4192061;28;20054;-62
2023/04/25 02:16:51;;;;;;;12.77;3.10;;;14.90;76.90;;;;;;4191772;28;20392;-63
2023/04/25 02:19:32;;;;;;;14.77;2.78;;;14.90;76.70;;;;;;4175456;28;20056;-63
2023/04/25 02:22:14;;;;;;;13.45;2.30;;;14.90;76.80;;;;;;4175513;28;20048;-63
2023/04/25 02:24:55;;;;;;;15.02;3.08;;;14.90;77.00;;;;;;4186581;28;20067;-63
2023/04/25 02:27:37;;;;;;;19.00;2.67;;;14.90;77.10;;;;;;4176201;28;20074;-62
2023/04/25 02:30:18;;;;;;;8.30;2.40;;;14.90;77.10;;;;;;4174947;28;20091;-62
2023/04/25 02:32:59;;;;;;;8.98;2.92;;;14.90;77.00;;;;;;4187533;28;20395;-62
2023/04/25 02:35:40;;;;;;;8.30;2.45;;;14.90;76.80;;;;;;4175329;28;20044;-62
2023/04/25 02:38:20;;;;;;;12.07;3.03;;;14.90;77.10;;;;;;4185621;28;20051;-63
2023/04/25 02:41:01;;;;;;;19.80;2.60;;;14.80;76.10;;;;;;4191950;28;20552;-63
2023/04/25 02:43:43;;;;;;;20.13;2.90;;;14.80;75.20;;;;;;4190711;28;20054;-63
2023/04/25 02:46:24;;;;;;;11.88;2.85;;;14.80;74.50;;;;;;4184282;28;20412;-62
2023/04/25 02:49:19;;;;;;;11.02;3.13;;;14.80;74.50;;;;;;4174749;28;20090;-63
2023/04/25 02:52:00;;;;;;;8.68;2.28;;;14.80;75.10;;;;;;4176200;28;20149;-61
2023/04/25 02:54:41;;;;;;;8.73;2.67;;;14.80;73.50;;;;;;4191218;28;20059;-62
2023/04/25 02:57:22;;;;;;;6.45;2.00;;;14.80;71.30;;;;;;4190979;28;20298;-62
2023/04/25 03:00:07;;;;;;;7.75;1.77;;;14.70;69.70;;;;;;4192517;28;20055;-62
2023/04/25 03:02:48;;;;;;;6.53;2.55;;;14.70;72.10;;;;;;4192458;28;20074;-63
2023/04/25 03:05:28;;;;;;;12.20;2.00;;;14.70;73.10;;;;;;4174874;28;20052;-62
2023/04/25 03:08:09;;;;;;;4.03;1.60;;;14.70;74.30;;;;;;4176101;28;20134;-62
2023/04/25 03:10:53;;;;;;;7.20;2.15;;;14.70;75.20;;;;;;4174744;28;20400;-62
2023/04/25 03:13:34;;;;;;;8.43;2.15;;;14.70;75.30;;;;;;4183430;28;20066;-63
2023/04/25 03:16:16;;;;;;;9.23;2.27;;;14.70;75.50;;;;;;4191307;28;20399;-63
2023/04/25 03:18:57;;;;;;;7.32;1.92;;;14.70;76.00;;;;;;4174551;28;20118;-62
2023/04/25 03:21:40;;;;;;;7.82;1.52;;;14.70;76.40;;;;;;4174537;28;20412;-63
2023/04/25 03:24:21;;;;;;;9.27;2.53;;;14.60;77.30;;;;;;4189936;28;20047;-63
2023/04/25 03:27:01;;;;;;;5.97;1.77;;;14.60;76.50;;;;;;4175806;28;20290;-63
2023/04/25 03:29:42;;;;;;;6.57;2.30;;;14.60;76.40;;;;;;4174459;28;20082;-62
2023/04/25 03:32:25;;;;;;;13.48;2.50;;;14.60;76.60;;;;;;4187314;28;20404;-62
2023/04/25 03:35:06;;;;;;;6.80;1.65;;;14.60;77.10;;;;;;4190992;28;20063;-62
2023/04/25 03:37:47;;;;;;;8.18;2.42;;;14.60;77.20;;;;;;4191247;28;20134;-63
2023/04/25 03:40:34;;;;;;;6.30;1.80;;;14.70;78.30;;;;;;4190521;28;20399;-63
2023/04/25 03:43:32;;;;;;;9.02;3.05;;;14.70;78.00;;;;;;4178566;28;20129;-63
2023/04/25 03:46:18;;;;;;;7.47;2.28;;;14.60;78.10;;;;;;4180650;28;20052;-63
2023/04/25 03:49:01;;;;;;;7.32;2.42;;;14.60;78.20;;;;;;4162943;28;20056;-62
2023/04/25 03:52:01;;;;;;;8.95;2.00;;;14.60;78.20;;;;;;4174389;28;20052;-62
2023/04/25 03:54:47;;;;;;;10.00;2.17;;;14.60;78.90;;;;;;4191120;28;20059;-62
2023/04/25 03:57:32;;;;;;;6.82;2.17;;;14.60;78.90;;;;;;4194201;28;20380;-62
2023/04/25 04:00:14;;;;;;;6.68;2.00;;;14.70;78.80;;;;;;4194550;28;20103;-63
2023/04/25 04:02:55;;;;;;;9.73;1.80;;;14.60;78.80;;;;;;4192176;28;20055;-63
2023/04/25 04:05:40;;;;;;;7.60;2.30;;;14.60;78.00;;;;;;4194453;28;20083;-62
2023/04/25 04:08:22;;;;;;;7.35;1.85;;;14.60;77.70;;;;;;4194292;28;20376;-62
2023/04/25 04:11:02;;;;;;;5.13;2.40;;;14.60;77.90;;;;;;4193366;28;20071;-62
2023/04/25 04:13:43;;;;;;;4.97;1.73;;;14.60;75.40;;;;;;4193453;28;20797;-62
2023/04/25 04:16:24;;;;;;;2.70;1.20;;;14.60;74.90;;;;;;4194085;28;20059;-62
2023/04/25 04:19:06;;;;;;;4.60;1.88;;;14.60;75.00;;;;;;4189013;28;20055;-62
2023/04/25 04:21:49;;;;;;;9.10;1.73;;;14.60;75.00;;;;;;4188143;28;20055;-62
2023/04/25 04:24:30;;;;;;;4.78;1.63;;;14.50;75.60;;;;;;4193364;28;20048;-62
2023/04/25 04:27:17;;;;;;;6.43;1.42;;;14.50;75.70;;;;;;4193807;28;20047;-62
2023/04/25 04:30:03;;;;;;;3.92;2.10;;;14.50;75.70;;;;;;4194546;28;20209;-62
2023/04/25 04:32:48;;;;;;;6.38;1.58;;;14.50;76.20;;;;;;4179202;28;20064;-62
2023/04/25 04:35:30;;;;;;;5.38;1.92;;;14.50;76.70;;;;;;4192178;28;20446;-63
2023/04/25 04:38:15;;;;;;;;;;;14.50;77.80;;;;;;4194128;28;20051;-62
2023/04/25 04:40:56;;;;;;;6.53;1.92;;;14.50;77.30;;;;;;4177987;28;19928;-63
2023/04/25 04:43:49;;;;;;;11.27;1.67;;;14.50;78.70;;;;;;4185240;28;20059;-63
2023/04/25 04:46:42;;;;;;;12.20;2.55;;;14.50;78.10;;;;;;4193345;28;20129;-63
2023/04/25 04:49:41;;;;;;;5.50;1.73;;;14.40;77.80;;;;;;4193112;28;20105;-62
2023/04/25 04:52:34;;;;;;;11.38;2.47;;;14.50;77.90;;;;;;4194570;28;20465;-63
2023/04/25 04:55:35;;;;;;;8.20;2.10;;;14.50;78.00;;;;;;4194049;28;20059;-62
2023/04/25 04:58:25;;;;;;;;;;;14.40;78.00;;;;;;4194008;28;20071;-63
2023/04/25 05:01:21;;;;;;;21.13;2.42;;;14.40;78.30;;;;;;4178936;28;19975;-62
2023/04/25 05:04:13;;;;;;;8.65;2.47;;;14.40;79.60;;;;;;4181219;28;20064;-63
2023/04/25 05:07:13;;;;;;;9.65;1.63;;;14.40;79.20;;;;;;4177138;28;20063;-62
2023/04/25 05:10:12;;;;;;;6.38;2.50;;;14.40;79.00;;;;;;4188253;28;20499;-62
2023/04/25 05:13:09;;;;;;;7.15;2.17;;;14.40;78.90;;;;;;4193372;28;20494;-62
2023/04/25 05:16:25;;;;;;;5.10;1.83;;;14.40;78.80;;;;;;4142330;28;20772;-62
2023/04/25 05:19:12;;;;;;;9.90;2.78;;;14.50;79.50;;;;;;4192448;28;20541;-62
2023/04/25 05:22:06;;;;;;;5.05;2.05;;;14.50;79.30;;;;;;4192624;28;20101;-62
2023/04/25 05:24:52;;;;;;;6.55;1.70;;;14.50;79.50;;;;;;4177651;28;20056;-63
2023/04/25 05:27:51;;;;;;;7.65;1.50;;;14.50;77.30;;;;;;4190189;28;20059;-63
2023/04/25 05:30:52;;;;;;;4.90;1.75;;;14.50;77.60;;;;;;4193435;28;20051;-63
2023/04/25 05:33:40;;;;;;;5.53;1.38;;;14.50;77.20;;;;;;4192640;28;20121;-63
2023/04/25 05:36:21;;;;;;;8.30;1.50;;;14.40;76.60;;;;;;4192642;28;20056;-63
2023/04/25 05:39:04;;;;;;;5.30;1.85;;;14.40;76.50;;;;;;4177032;28;20060;-63
2023/04/25 05:42:03;;;;;;;6.50;1.65;;;14.40;77.00;;;;;;4187883;28;20051;-63
2023/04/25 05:45:03;;;;;;;3.47;1.13;;;14.40;77.30;;;;;;4193446;28;20113;-62
2023/04/25 05:47:56;;;;;;;2.13;1.30;;;14.40;77.50;;;;;;4192663;28;20054;-62
2023/04/25 05:50:51;;;;;;;4.43;1.52;;;14.40;77.30;;;;;;4191504;28;20101;-62
2023/04/25 05:53:55;;;;;;;2.28;1.20;;;14.40;77.70;;;;;;4188568;28;20101;-62
2023/04/25 05:56:36;;;;;;;5.63;1.20;;;14.40;77.60;;;;;;4192046;28;20178;-62
2023/04/25 05:59:17;;;;;;;5.60;1.63;;;14.40;76.90;;;;;;4192186;28;20063;-62
2023/04/25 06:01:58;;;;;;;;;;;14.40;76.80;;;;;;4181340;28;20070;-62
2023/04/25 06:04:42;;;;;;;;;;;14.40;77.50;;;;;;4192468;28;19931;-62
2023/04/25 06:07:23;;;;;;;3.65;1.30;;;14.40;79.00;;;;;;4192354;28;19927;-63
2023/04/25 06:10:06;;;;;;;6.50;1.52;;;14.40;78.20;;;;;;4193072;28;20047;-62
2023/04/25 06:12:47;;;;;;;2.75;1.25;;;14.40;78.20;;;;;;4185797;28;20433;-62
2023/04/25 06:15:29;;;;;;;5.38;1.77;;;14.40;78.00;;;;;;4175423;28;20607;-63
2023/04/25 06:18:10;;;;;;;3.03;1.00;;;14.40;77.80;;;;;;4176263;28;20589;-62
2023/04/25 06:20:53;;;;;;;6.80;1.35;;;14.30;77.50;;;;;;4175507;28;20048;-62
2023/04/25 06:23:35;;;;;;;7.78;1.20;;;14.40;77.40;;;;;;4183697;28;20072;-62
2023/04/25 06:26:20;;;;;;;5.35;1.42;;;14.40;77.80;;;;;;4175333;28;20048;-62
2023/04/25 06:29:01;;;;;;;;;;;14.30;77.80;;;;;;4175658;28;20060;-64
2023/04/25 06:31:42;;;;;;;5.28;1.30;;;14.40;78.10;;;;;;4176355;28;20490;-64
2023/04/25 06:34:23;;;;;;;3.83;1.83;;;14.40;78.80;;;;;;4186927;28;20052;-64
2023/04/25 06:37:06;;;;;;;6.22;1.80;;;14.40;78.20;;;;;;4186585;28;20067;-65
2023/04/25 06:39:47;;;;;;;8.05;1.45;;;14.50;78.10;;;;;;4174912;28;20103;-64
2023/04/25 06:42:28;;;;;;;7.22;1.92;;;14.50;78.00;;;;;;4185151;28;20048;-67
2023/04/25 06:45:12;;;;;;;6.03;1.60;;;14.60;77.60;;;;;;4185484;28;20042;-64
2023/04/25 06:47:53;;;;;;;3.67;1.10;;;14.70;76.90;;;;;;4191565;28;20113;-66
2023/04/25 06:50:35;;;;;;;3.65;1.40;;;14.70;75.90;;;;;;4191463;28;20055;-66
2023/04/25 06:53:17;;;;;;;5.32;1.40;;;14.80;75.80;;;;;;4190731;28;20055;-64
2023/04/25 06:56:01;;;;;;;5.65;1.83;;;14.90;75.00;;;;;;4191448;28;20059;-65
2023/04/25 06:58:54;;;;;;;4.32;1.25;;;14.90;74.40;;;;;;4190911;28;20105;-65
2023/04/25 07:01:43;;;;;;;4.45;1.30;;;14.90;74.00;;;;;;4192480;28;20187;-65
2023/04/25 07:04:38;;;;;;;8.82;1.60;;;14.90;74.00;;;;;;4174438;28;20065;-65
2023/04/25 07:07:19;;;;;;;4.80;1.70;;;14.90;69.90;;;;;;4174924;28;20482;-64
2023/04/25 07:10:09;;;;;;;4.80;1.10;;;14.90;69.20;;;;;;4174608;28;20114;-65
2023/04/25 07:12:50;;;;;;;7.00;1.50;;;14.90;67.50;;;;;;4179235;28;20101;-65
2023/04/25 07:15:31;;;;;;;4.03;0.88;;;14.80;68.60;;;;;;4191138;28;20055;-65
2023/04/25 07:18:12;;;;;;;;;;;14.80;70.40;;;;;;4185814;28;20485;-64
2023/04/25 07:20:53;;;;;;;8.27;1.27;;;14.70;69.60;;;;;;4192209;28;20299;-64
2023/04/25 07:23:34;;;;;;;7.45;1.30;;;14.70;71.70;;;;;;4190223;28;20621;-65
2023/04/25 07:26:23;;;;;;;5.65;1.38;;;14.70;71.90;;;;;;4174706;28;20048;-63
2023/04/25 07:29:23;;;;;;;3.13;1.60;;;14.60;71.80;;;;;;4174899;28;20052;-65
2023/04/25 07:32:05;;;;;;;5.68;1.35;;;14.60;71.70;;;;;;4174526;28;20170;-64
2023/04/25 07:34:46;;;;;;;2.60;1.13;;;14.60;71.30;;;;;;4174591;28;20223;-62
2023/04/25 07:37:29;;;;;;;6.88;1.38;;;14.60;72.00;;;;;;4177684;28;20537;-62
2023/04/25 07:40:22;;;;;;;2.95;0.85;;;14.60;71.60;;;;;;4190439;28;20462;-62
2023/04/25 07:43:12;;;;;;;11.18;1.20;;;14.70;71.80;;;;;;4190473;28;20532;-62
2023/04/25 07:46:00;;;;;;;7.22;1.65;;;14.70;70.90;;;;;;4173756;28;20174;-63
2023/04/25 07:48:44;;;;;;;9.55;1.95;;;14.70;69.30;;;;;;4186803;28;20051;-62
2023/04/25 07:51:25;;;;;;;2.90;1.40;;;14.80;68.80;;;;;;4190363;28;20047;-62
2023/04/25 07:54:08;;;;;;;8.13;1.48;;;14.80;69.30;;;;;;4191002;28;20051;-62
2023/04/25 07:56:55;;;;;;;7.20;1.75;;;14.80;70.30;;;;;;4191242;28;20090;-62
2023/04/25 07:59:41;;;;;;;4.15;1.30;;;14.80;70.70;;;;;;4189668;28;20055;-62
2023/04/25 08:02:23;;;;;;;5.28;1.27;;;14.80;69.60;;;;;;4182780;28;20050;-62
2023/04/25 08:05:04;;;;;;;4.25;1.58;;;14.80;70.70;;;;;;4191080;28;20135;-62
2023/04/25 08:07:45;;;;;;;7.03;1.50;;;14.80;71.00;;;;;;4162952;28;20056;-62
2023/04/25 08:10:26;;;;;;;7.90;1.92;;;14.80;71.00;;;;;;4174480;28;20051;-62
2023/04/25 08:13:07;;;;;;;5.55;1.65;;;14.80;71.30;;;;;;4174081;28;20052;-62
2023/04/25 08:15:50;;;;;;;;;;;14.80;71.10;;;;;;4175127;28;20141;-61
2023/04/25 08:18:31;;;;;;;2.80;1.40;;;14.80;71.50;;;;;;4182965;28;20020;-62
2023/04/25 08:21:13;;;;;;;7.22;1.42;;;14.80;71.40;;;;;;4178977;28;20056;-61
2023/04/25 08:23:55;;;;;;;7.97;1.35;;;14.90;72.00;;;;;;4172211;28;20060;-61
2023/04/25 08:26:41;;;;;;;3.63;1.00;;;14.90;71.20;;;;;;4152987;28;20110;-61
2023/04/25 08:29:25;;;;;;;2.55;1.00;;;14.90;72.60;;;;;;4145941;28;20503;-62
2023/04/25 08:32:08;;;;;;;3.35;1.08;;;14.90;71.20;;;;;;4144956;28;20062;-61
2023/04/25 08:34:55;;;;;;;2.60;1.00;;;14.90;71.20;;;;;;4145127;28;20060;-63
2023/04/25 08:37:36;;;;;;;2.92;0.95;;;14.90;71.50;;;;;;4155502;28;20591;-62
2023/04/25 08:40:29;;;;;;;2.55;1.00;;;14.90;71.40;;;;;;4162585;28;20056;-61
2023/04/25 08:43:16;;;;;;;1.02;0.95;;;14.80;71.10;;;;;;4164076;28;20067;-62
2023/04/25 08:46:00;;;;;;;2.90;1.08;;;14.80;71.60;;;;;;4163160;28;20051;-62
2023/04/25 08:48:57;;;;;;;4.88;0.95;;;14.80;71.50;;;;;;4147283;28;20063;-62
2023/04/25 08:51:47;;;;;;;2.95;1.38;;;14.80;72.50;;;;;;4159409;28;20059;-62
2023/04/25 08:54:32;;;;;;;1.60;0.70;;;14.80;71.60;;;;;;4155102;28;20072;-63
2023/04/25 08:57:16;;;;;;;4.05;0.85;;;14.80;71.90;;;;;;4183846;28;20056;-62
2023/04/25 08:59:58;;;;;;;0.80;0.77;;;14.80;72.10;;;;;;4193482;28;20051;-62
2023/04/25 09:02:43;;;;;;;2.33;1.08;;;14.80;71.60;;;;;;4193223;28;20055;-62
2023/04/25 09:05:26;;;;;;;4.57;0.98;;;14.90;71.50;;;;;;4194114;28;20491;-62
2023/04/25 09:08:06;;;;;;;3.22;1.42;;;14.90;70.70;;;;;;4176860;28;20056;-62
2023/04/25 09:10:48;;;;;;;5.00;0.98;;;14.90;70.80;;;;;;4176647;28;20080;-62
2023/04/25 09:13:30;;;;;;;5.65;1.35;;;14.90;71.00;;;;;;4177897;28;20068;-62
2023/04/25 09:16:37;;;;;;;4.03;1.00;;;14.90;69.80;;;;;;4184016;28;20536;-62
2023/04/25 09:19:46;;;;;;;6.07;1.63;;;15.00;71.40;;;;;;4192809;28;20105;-63
2023/04/25 09:22:37;;;;;;;4.93;1.23;;;15.00;71.90;;;;;;4192957;28;20056;-62
2023/04/25 09:25:18;;;;;;;9.68;1.58;;;15.00;71.00;;;;;;4192932;28;20050;-62
2023/04/25 09:28:05;;;;;;;3.25;1.50;;;15.10;71.30;;;;;;4176474;28;20047;-62
2023/04/25 09:30:47;;;;;;;4.40;1.25;;;15.10;70.10;;;;;;4176298;28;20051;-62
2023/04/25 09:33:36;;;;;;;4.20;1.23;;;15.10;70.90;;;;;;4176602;28;20478;-63
2023/04/25 09:36:19;;;;;;;7.30;1.80;;;15.00;70.50;;;;;;4179349;28;20079;-63
2023/04/25 09:39:33;;;;;;;4.70;1.30;;;15.00;69.60;;;;;;4193712;28;20052;-65
2023/04/25 09:42:26;;;;;;;3.67;1.17;;;15.00;69.00;;;;;;4192255;28;20121;-61
2023/04/25 09:45:08;;;;;;;3.80;2.53;;;15.00;69.40;;;;;;4179780;28;20545;-61
2023/04/25 09:47:57;;;;;;;6.20;1.40;;;15.00;66.60;;;;;;4191741;28;20063;-61
2023/04/25 09:50:41;;;;;;;3.50;1.20;;;15.00;67.00;;;;;;4192408;28;20557;-62
2023/04/25 09:53:25;;;;;;;3.78;1.35;;;15.00;68.10;;;;;;4186160;28;20187;-62
2023/04/25 09:56:32;;;;;;;7.35;1.52;;;15.00;68.40;;;;;;4170082;28;20055;-61
2023/04/25 09:59:15;;;;;;;8.43;1.65;;;15.00;69.00;;;;;;4176322;28;20052;-62
2023/04/25 10:01:57;;;;;;;6.47;1.52;;;15.00;69.60;;;;;;4185919;28;20513;-63
2023/04/25 10:04:51;;;;;;;5.05;1.48;;;15.00;68.90;;;;;;4188124;28;20048;-63
2023/04/25 10:07:39;;;;;;;4.85;1.45;;;15.00;69.70;;;;;;4192225;28;20086;-63
2023/04/25 10:10:27;;;;;;;6.00;1.52;;;15.10;68.40;;;;;;4180517;28;20694;-63
2023/04/25 10:13:14;;;;;;;3.17;1.42;;;15.10;66.50;;;;;;4192596;28;20051;-63
2023/04/25 10:15:56;;;;;;;4.22;1.38;;;15.10;66.60;;;;;;4192993;28;20059;-63
2023/04/25 10:18:37;;;;;;;2.80;1.33;;;15.10;65.70;;;;;;4191825;28;20506;-64
2023/04/25 10:21:19;;;;;;;4.10;1.73;;;15.10;64.10;;;;;;4192943;28;20059;-64
2023/04/25 10:24:01;;;;;;;1.05;0.88;;;15.10;64.40;;;;;;4192093;28;20556;-63
2023/04/25 10:26:43;;;;;;;1.73;0.95;;;15.10;64.60;;;;;;4191841;28;20519;-62
2023/04/25 10:29:27;;;;;;;5.10;1.17;;;15.00;65.30;;;;;;4192820;28;20518;-63
2023/04/25 10:32:09;;;;;;;4.55;1.48;;;15.00;65.50;;;;;;4192292;28;20055;-63
2023/04/25 10:34:50;;;;;;;2.97;1.08;;;15.00;66.30;;;;;;4192990;28;20052;-63
2023/04/25 10:37:31;;;;;;;4.25;0.88;;;15.00;66.90;;;;;;4193024;28;20126;-63
2023/04/25 10:40:13;;;;;;;;;;;14.90;66.70;;;;;;4193233;28;20059;-64
2023/04/25 10:42:54;;;;;;;4.55;1.20;;;14.90;67.50;;;;;;4192449;28;19927;-64
2023/04/25 10:45:52;;;;;;;4.15;1.20;;;14.90;69.10;;;;;;4193018;28;20159;-64
2023/04/25 10:48:33;;;;;;;3.85;0.90;;;14.90;68.70;;;;;;4187326;28;20521;-64
2023/04/25 10:51:21;;;;;;;7.85;2.17;;;14.90;68.60;;;;;;4192144;28;20086;-64
2023/04/25 10:54:04;;;;;;;8.93;1.73;;;14.90;67.70;;;;;;4192184;28;20043;-63
2023/04/25 10:56:45;;;;;;;4.22;1.20;;;14.90;67.80;;;;;;4192504;28;20051;-63
2023/04/25 10:59:28;;;;;;;7.00;1.35;;;14.90;67.00;;;;;;4190883;28;20067;-64
2023/04/25 11:02:14;;;;;;;6.25;1.73;;;14.90;66.90;;;;;;4191865;28;20055;-63
2023/04/25 11:04:55;;;;;;;1.67;0.95;;;14.90;67.50;;;;;;4191969;28;20411;-62
2023/04/25 11:07:40;;;;;;;3.53;1.50;;;14.90;67.50;;;;;;4191927;28;20414;-63
2023/04/25 11:10:25;;;;;;;2.88;0.93;;;14.90;67.90;;;;;;4175786;28;20121;-63
2023/04/25 11:13:06;;;;;;;3.13;1.00;;;14.90;67.90;;;;;;4187899;28;20067;-62
2023/04/25 11:15:52;;;;;;;3.30;1.37;;;14.90;68.80;;;;;;4192426;28;20071;-62
2023/04/25 11:18:42;;;;;;;7.85;1.30;;;14.90;68.20;;;;;;4183208;28;20060;-63
2023/04/25 11:21:23;;;;;;;5.05;2.13;;;14.90;67.00;;;;;;4175615;28;20056;-62
2023/04/25 11:24:04;;;;;;;2.83;1.63;;;14.90;68.80;;;;;;4175939;28;20048;-62
2023/04/25 11:26:48;;;;;;;2.83;1.30;;;14.90;68.40;;;;;;4178394;28;20130;-62
2023/04/25 11:29:30;;;;;;;8.57;1.20;;;14.90;67.40;;;;;;4175423;28;20056;-62
2023/04/25 11:32:11;;;;;;;5.90;1.92;;;15.00;67.20;;;;;;4181304;28;20186;-63
2023/04/25 11:34:53;;;;;;;5.85;1.80;;;15.00;66.60;;;;;;4191765;28;20486;-63
2023/04/25 11:37:35;;;;;;;6.85;1.40;;;15.00;65.40;;;;;;4182033;28;20055;-63
2023/04/25 11:40:16;;;;;;;4.38;1.40;;;15.00;66.20;;;;;;4174794;28;20166;-63
2023/04/25 11:42:57;;;;;;;2.72;1.00;;;15.00;67.20;;;;;;4187625;28;20074;-62
2023/04/25 11:45:38;;;;;;;3.20;1.13;;;15.00;67.20;;;;;;4192357;28;20123;-63
2023/04/25 11:48:20;;;;;;;2.90;1.17;;;15.00;66.90;;;;;;4176039;28;20056;-63
2023/04/25 11:51:05;;;;;;;2.63;1.02;;;15.00;66.70;;;;;;4178985;28;20055;-64
2023/04/25 11:53:46;;;;;;;4.15;1.42;;;15.00;65.90;;;;;;4175385;28;20114;-65
2023/04/25 11:56:27;;;;;;;5.30;1.58;;;15.10;64.10;;;;;;4175337;28;20068;-63
2023/04/25 11:59:08;;;;;;;5.03;1.33;;;15.10;66.30;;;;;;4175270;28;20145;-62
2023/04/25 12:01:50;;;;;;;7.03;1.88;;;15.10;66.10;;;;;;4180228;28;20067;-63
2023/04/25 12:04:32;;;;;;;9.57;1.80;;;15.10;65.90;;;;;;4191928;28;20055;-63
2023/04/25 12:07:15;;;;;;;4.13;1.38;;;15.10;66.20;;;;;;4191596;28;20051;-62
2023/04/25 12:09:56;;;;;;;7.82;1.52;;;15.10;66.70;;;;;;4178679;28;20055;-62
2023/04/25 12:12:37;;;;;;;5.80;1.40;;;15.10;65.60;;;;;;4188171;28;20051;-62
2023/04/25 12:15:25;;;;;;;7.32;2.15;;;15.10;65.20;;;;;;4189161;28;20051;-62
2023/04/25 12:18:07;;;;;;;4.68;1.40;;;15.10;66.20;;;;;;4178619;28;20565;-62
2023/04/25 12:20:48;;;;;;;5.38;1.20;;;15.20;65.10;;;;;;4178678;28;20051;-62
2023/04/25 12:23:30;;;;;;;3.95;1.52;;;15.10;66.10;;;;;;4178448;28;20498;-62
2023/04/25 12:26:11;;;;;;;2.95;1.10;;;15.10;64.80;;;;;;4179403;28;20060;-62
2023/04/25 12:28:52;;;;;;;3.10;1.05;;;15.20;64.00;;;;;;4178503;28;20144;-62
2023/04/25 12:31:33;;;;;;;2.55;0.90;;;15.10;64.40;;;;;;4170533;28;20543;-62
2023/04/25 12:34:14;;;;;;;4.85;1.02;;;15.10;63.10;;;;;;4178241;28;20068;-63
2023/04/25 12:36:55;;;;;;;3.97;1.30;;;15.10;64.50;;;;;;4182828;28;20470;-62
2023/04/25 12:39:38;;;;;;;4.03;1.73;;;15.10;66.10;;;;;;4178105;28;20052;-62
2023/04/25 12:42:19;;;;;;;6.80;1.65;;;15.10;66.40;;;;;;4191136;28;20121;-62
2023/04/25 12:45:00;;;;;;;5.47;1.63;;;15.10;66.20;;;;;;4193837;28;20051;-64
2023/04/25 12:47:41;;;;;;;4.55;1.17;;;15.10;65.50;;;;;;4194474;28;20055;-64
2023/04/25 12:50:22;;;;;;;3.67;1.33;;;15.10;66.50;;;;;;4194346;28;20075;-64
2023/04/25 12:53:03;;;;;;;6.45;1.38;;;15.10;66.20;;;;;;4193409;28;20076;-63
2023/04/25 12:55:46;;;;;;;9.50;1.65;;;15.10;66.10;;;;;;4194350;28;20090;-64
2023/04/25 12:58:27;;;;;;;6.43;1.50;;;15.10;65.00;;;;;;4192580;28;20044;-66
2023/04/25 13:01:08;;;;;;;4.40;1.65;;;15.10;65.90;;;;;;4191829;28;20051;-63
2023/04/25 13:03:49;;;;;;;8.48;1.98;;;15.20;67.30;;;;;;4193512;28;20395;-62
2023/04/25 13:06:31;;;;;;;5.55;1.33;;;15.20;64.40;;;;;;4177619;28;20094;-63
2023/04/25 13:09:12;;;;;;;6.88;1.35;;;15.20;62.60;;;;;;4184346;28;20052;-62
2023/04/25 13:11:55;;;;;;;3.30;1.33;;;15.20;63.40;;;;;;4194048;28;20055;-62
2023/04/25 13:14:37;;;;;;;3.63;1.10;;;15.20;62.30;;;;;;4193583;28;20047;-61
2023/04/25 13:17:18;;;;;;;3.70;1.13;;;15.20;63.70;;;;;;4193765;28;20052;-63
2023/04/25 13:19:58;;;;;;;7.33;1.70;;;15.20;64.20;;;;;;4193241;28;20047;-62
2023/04/25 13:22:40;;;;;;;5.00;1.50;;;15.20;64.10;;;;;;4194001;28;20310;-62
2023/04/25 13:25:21;;;;;;;;;;;15.20;64.70;;;;;;4194172;28;20502;-62
2023/04/25 13:28:04;;;;;;;3.55;1.35;;;15.20;64.70;;;;;;4193146;28;20314;-62
2023/04/25 13:30:46;;;;;;;6.82;1.60;;;15.20;63.20;;;;;;4193510;28;20501;-62
2023/04/25 13:33:27;;;;;;;5.35;1.63;;;15.20;63.30;;;;;;4193359;28;20064;-62
2023/04/25 13:36:08;;;;;;;6.13;2.05;;;15.10;62.00;;;;;;4186209;28;20126;-63
2023/04/25 13:38:50;;;;;;;5.47;1.63;;;15.20;63.20;;;;;;4178167;28;20052;-61
2023/04/25 13:41:30;;;;;;;5.60;1.50;;;15.10;63.00;;;;;;4192942;28;20552;-62
2023/04/25 13:44:13;;;;;;;5.80;1.52;;;15.10;63.40;;;;;;4192180;28;20056;-62
2023/04/25 13:46:54;;;;;;;7.43;1.75;;;15.10;64.60;;;;;;4192701;28;20064;-62
2023/04/25 13:49:35;;;;;;;7.32;1.60;;;15.10;64.40;;;;;;4193317;28;20055;-62
2023/04/25 13:52:16;;;;;;;6.43;1.23;;;15.10;64.00;;;;;;4192384;28;20174;-62
2023/04/25 13:54:57;;;;;;;6.60;1.33;;;15.10;62.90;;;;;;4189379;28;20055;-62
2023/04/25 13:57:38;;;;;;;4.25;1.30;;;15.10;63.70;;;;;;4190524;28;20514;-61
2023/04/25 14:00:22;;;;;;;3.70;1.05;;;15.10;63.80;;;;;;4193041;28;20067;-61
2023/04/25 14:03:06;;;;;;;2.53;1.10;;;15.10;62.90;;;;;;4182782;28;20055;-61
2023/04/25 14:05:48;;;;;;;2.83;1.48;;;15.10;62.30;;;;;;4193000;28;20601;-61
2023/04/25 14:08:29;;;;;;;3.55;1.10;;;15.20;61.20;;;;;;4190872;28;20051;-60
2023/04/25 14:11:10;;;;;;;2.35;1.00;;;15.20;61.70;;;;;;4183576;28;20060;-62
2023/04/25 14:13:52;;;;;;;1.83;1.25;;;15.10;62.00;;;;;;4183554;28;20052;-61
2023/04/25 14:16:35;;;;;;;3.35;1.20;;;15.20;62.00;;;;;;4184221;28;20106;-62